sensor_id;sensor_type;location;lat;lon;timestamp;pressure;altitude;pressure_sealevel;temperature;humidity
34931;BME280;21134;49.646;8.560;2023-03-22T00:00:42;100271.94;;;8.45;100.00
34931;BME280;21134;49.646;8.560;2023-03-22T00:03:10;100271.94;;;8.48;100.00
34931;BME280;21134;49.646;8.560;2023-03-22T00:05:37;100267.72;;;8.50;100.00
34931;BME280;21134;49.646;8.560;2023-03-22T00:08:04;100269.44;;;8.53;100.00
34931;BME280;21134;49.646;8.560;2023-03-22T00:10:33;100268.59;;;8.54;100.00
34931;BME280;21134;49.646;8.560;2023-03-22T00:13:01;100260.09;;;8.56;100.00
34931;BME280;21134;49.646;8.560;2023-03-22T00:15:27;100262.66;;;8.56;100.00
34931;BME280;21134;49.646;8.560;2023-03-22T00:17:54;100269.47;;;8.59;100.00
34931;BME280;21134;49.646;8.560;2023-03-22T00:20:23;100254.16;;;8.60;100.00
34931;BME280;21134;49.646;8.560;2023-03-22T00:22:50;100250.75;;;8.63;100.00
34931;BME280;21134;49.646;8.560;2023-03-22T00:25:16;100251.63;;;8.65;100.00
34931;BME280;21134;49.646;8.560;2023-03-22T00:27:43;100248.25;;;8.72;100.00
34931;BME280;21134;49.646;8.560;2023-03-22T00:30:10;100244.84;;;8.73;100.00
34931;BME280;21134;49.646;8.560;2023-03-22T00:32:37;100244.00;;;8.74;100.00
34931;BME280;21134;49.646;8.560;2023-03-22T00:35:05;100245.69;;;8.80;100.00
34931;BME280;21134;49.646;8.560;2023-03-22T00:37:33;100242.31;;;8.81;100.00
34931;BME280;21134;49.646;8.560;2023-03-22T00:40:03;100238.06;;;8.86;100.00
34931;BME280;21134;49.646;8.560;2023-03-22T00:42:29;100241.47;;;8.88;100.00
34931;BME280;21134;49.646;8.560;2023-03-22T00:44:56;100238.94;;;8.91;100.00
34931;BME280;21134;49.646;8.560;2023-03-22T00:47:23;100241.47;;;8.93;100.00
34931;BME280;21134;49.646;8.560;2023-03-22T00:49:49;100237.22;;;8.96;100.00
34931;BME280;21134;49.646;8.560;2023-03-22T00:52:16;100230.44;;;8.98;100.00
34931;BME280;21134;49.646;8.560;2023-03-22T00:54:43;100224.50;;;9.01;100.00
34931;BME280;21134;49.646;8.560;2023-03-22T00:57:10;100226.19;;;9.03;100.00
34931;BME280;21134;49.646;8.560;2023-03-22T00:59:38;100223.66;;;9.03;100.00
34931;BME280;21134;49.646;8.560;2023-03-22T01:02:05;100216.81;;;9.05;100.00
34931;BME280;21134;49.646;8.560;2023-03-22T01:04:31;100214.28;;;9.05;100.00
34931;BME280;21134;49.646;8.560;2023-03-22T01:06:59;100211.72;;;9.08;100.00
34931;BME280;21134;49.646;8.560;2023-03-22T01:09:28;100208.31;;;9.11;100.00
34931;BME280;21134;49.646;8.560;2023-03-22T01:12:00;100214.28;;;9.12;100.00
34931;BME280;21134;49.646;8.560;2023-03-22T01:14:30;100210.03;;;9.14;100.00
34931;BME280;21134;49.646;8.560;2023-03-22T01:16:56;100211.75;;;9.13;100.00
34931;BME280;21134;49.646;8.560;2023-03-22T01:19:23;100205.78;;;9.13;100.00
34931;BME280;21134;49.646;8.560;2023-03-22T01:21:52;100200.66;;;9.11;100.00
34931;BME280;21134;49.646;8.560;2023-03-22T01:24:18;100195.56;;;9.11;100.00
34931;BME280;21134;49.646;8.560;2023-03-22T01:26:45;100187.91;;;9.17;100.00
34931;BME280;21134;49.646;8.560;2023-03-22T01:29:13;100183.66;;;9.15;100.00
34931;BME280;21134;49.646;8.560;2023-03-22T01:31:39;100193.88;;;9.13;100.00
34931;BME280;21134;49.646;8.560;2023-03-22T01:34:06;100194.72;;;9.14;100.00
34931;BME280;21134;49.646;8.560;2023-03-22T01:36:33;100197.28;;;9.14;100.00
34931;BME280;21134;49.646;8.560;2023-03-22T01:39:00;100193.03;;;9.13;100.00
34931;BME280;21134;49.646;8.560;2023-03-22T01:41:27;100190.47;;;9.16;100.00
34931;BME280;21134;49.646;8.560;2023-03-22T01:44:07;100190.47;;;9.20;100.00
34931;BME280;21134;49.646;8.560;2023-03-22T01:46:35;100174.31;;;9.20;100.00
34931;BME280;21134;49.646;8.560;2023-03-22T01:49:02;100183.66;;;9.19;100.00
34931;BME280;21134;49.646;8.560;2023-03-22T01:51:30;100182.78;;;9.22;100.00
34931;BME280;21134;49.646;8.560;2023-03-22T01:53:59;100182.81;;;9.23;100.00
34931;BME280;21134;49.646;8.560;2023-03-22T01:56:30;100183.66;;;9.24;100.00
34931;BME280;21134;49.646;8.560;2023-03-22T01:58:58;100183.66;;;9.28;100.00
34931;BME280;21134;49.646;8.560;2023-03-22T02:01:25;100179.41;;;9.29;100.00
34931;BME280;21134;49.646;8.560;2023-03-22T02:03:56;100185.34;;;9.28;100.00
34931;BME280;21134;49.646;8.560;2023-03-22T02:06:24;100187.03;;;9.34;100.00
34931;BME280;21134;49.646;8.560;2023-03-22T02:08:54;100184.50;;;9.38;100.00
34931;BME280;21134;49.646;8.560;2023-03-22T02:11:27;100179.38;;;9.37;100.00
34931;BME280;21134;49.646;8.560;2023-03-22T02:14:07;100183.63;;;9.39;100.00
34931;BME280;21134;49.646;8.560;2023-03-22T02:16:43;100184.47;;;9.44;100.00
34931;BME280;21134;49.646;8.560;2023-03-22T02:19:37;100183.63;;;9.45;100.00
34931;BME280;21134;49.646;8.560;2023-03-22T02:22:23;100181.91;;;9.52;100.00
34931;BME280;21134;49.646;8.560;2023-03-22T02:25:12;100174.25;;;9.53;99.31
34931;BME280;21134;49.646;8.560;2023-03-22T02:31:12;100175.97;;;9.54;99.10
34931;BME280;21134;49.646;8.560;2023-03-22T02:36:52;100173.41;;;9.58;98.18
34931;BME280;21134;49.646;8.560;2023-03-22T02:39:30;100174.25;;;9.52;98.89
34931;BME280;21134;49.646;8.560;2023-03-22T02:42:08;100172.56;;;9.52;99.55
34931;BME280;21134;49.646;8.560;2023-03-22T02:44:41;100166.59;;;9.49;99.61
34931;BME280;21134;49.646;8.560;2023-03-22T02:47:15;100163.22;;;9.45;100.00
34931;BME280;21134;49.646;8.560;2023-03-22T02:49:48;100146.16;;;9.49;100.00
34931;BME280;21134;49.646;8.560;2023-03-22T02:52:20;100150.41;;;9.53;99.04
34931;BME280;21134;49.646;8.560;2023-03-22T02:54:54;100160.66;;;9.48;99.86
34931;BME280;21134;49.646;8.560;2023-03-22T02:57:28;100164.91;;;9.49;100.00
34931;BME280;21134;49.646;8.560;2023-03-22T02:59:59;100155.53;;;9.48;99.49
34931;BME280;21134;49.646;8.560;2023-03-22T03:02:27;100158.09;;;9.45;100.00
34931;BME280;21134;49.646;8.560;2023-03-22T03:04:54;100162.38;;;9.42;100.00
34931;BME280;21134;49.646;8.560;2023-03-22T03:07:25;100141.94;;;9.45;100.00
34931;BME280;21134;49.646;8.560;2023-03-22T03:09:53;100155.53;;;9.41;100.00
34931;BME280;21134;49.646;8.560;2023-03-22T03:12:22;100155.56;;;9.42;100.00
34931;BME280;21134;49.646;8.560;2023-03-22T03:14:50;100168.31;;;9.42;100.00
34931;BME280;21134;49.646;8.560;2023-03-22T03:17:23;100162.34;;;9.43;100.00
34931;BME280;21134;49.646;8.560;2023-03-22T03:20:03;100163.22;;;9.42;100.00
34931;BME280;21134;49.646;8.560;2023-03-22T03:22:42;100160.66;;;9.39;100.00
34931;BME280;21134;49.646;8.560;2023-03-22T03:25:19;100156.41;;;9.38;100.00
34931;BME280;21134;49.646;8.560;2023-03-22T03:27:54;100149.59;;;9.37;100.00
34931;BME280;21134;49.646;8.560;2023-03-22T03:30:27;100153.00;;;9.39;100.00
34931;BME280;21134;49.646;8.560;2023-03-22T03:32:59;100152.97;;;9.41;100.00
34931;BME280;21134;49.646;8.560;2023-03-22T03:35:31;100138.53;;;9.38;100.00
34931;BME280;21134;49.646;8.560;2023-03-22T03:38:05;100142.78;;;9.36;100.00
34931;BME280;21134;49.646;8.560;2023-03-22T03:40:37;100141.94;;;9.42;100.00
34931;BME280;21134;49.646;8.560;2023-03-22T03:43:06;100141.09;;;9.41;100.00
34931;BME280;21134;49.646;8.560;2023-03-22T03:45:33;100136.84;;;9.39;100.00
34931;BME280;21134;49.646;8.560;2023-03-22T03:48:04;100136.81;;;9.34;100.00
34931;BME280;21134;49.646;8.560;2023-03-22T03:50:31;100133.44;;;9.35;100.00
34931;BME280;21134;49.646;8.560;2023-03-22T03:52:58;100135.13;;;9.35;100.00
34931;BME280;21134;49.646;8.560;2023-03-22T03:55:25;100131.75;;;9.32;100.00
34931;BME280;21134;49.646;8.560;2023-03-22T03:57:54;100136.84;;;9.42;100.00
34931;BME280;21134;49.646;8.560;2023-03-22T04:00:20;100125.75;;;9.43;99.32
34931;BME280;21134;49.646;8.560;2023-03-22T04:02:47;100129.16;;;9.45;98.37
34931;BME280;21134;49.646;8.560;2023-03-22T04:05:13;100130.00;;;9.42;98.00
34931;BME280;21134;49.646;8.560;2023-03-22T04:07:40;100130.84;;;9.46;98.07
34931;BME280;21134;49.646;8.560;2023-03-22T04:10:07;100124.88;;;9.47;97.54
34931;BME280;21134;49.646;8.560;2023-03-22T04:12:34;100132.56;;;9.51;97.28
34931;BME280;21134;49.646;8.560;2023-03-22T04:15:02;100120.63;;;9.50;97.38
34931;BME280;21134;49.646;8.560;2023-03-22T04:17:28;100128.28;;;9.52;97.77
34931;BME280;21134;49.646;8.560;2023-03-22T04:19:56;100123.16;;;9.58;96.92
34931;BME280;21134;49.646;8.560;2023-03-22T04:22:23;100113.84;;;9.51;96.96
34931;BME280;21134;49.646;8.560;2023-03-22T04:24:51;100116.38;;;9.52;96.62
34931;BME280;21134;49.646;8.560;2023-03-22T04:27:19;100117.25;;;9.45;96.00
34931;BME280;21134;49.646;8.560;2023-03-22T04:29:45;100115.56;;;9.41;96.81
34931;BME280;21134;49.646;8.560;2023-03-22T04:32:17;100107.91;;;9.35;96.91
34931;BME280;21134;49.646;8.560;2023-03-22T04:34:47;100107.91;;;9.35;96.58
34931;BME280;21134;49.646;8.560;2023-03-22T04:37:14;100101.91;;;9.38;96.03
34931;BME280;21134;49.646;8.560;2023-03-22T04:39:41;100094.28;;;9.36;96.07
34931;BME280;21134;49.646;8.560;2023-03-22T04:42:08;100090.03;;;9.38;95.54
34931;BME280;21134;49.646;8.560;2023-03-22T04:44:34;100092.59;;;9.35;95.25
34931;BME280;21134;49.646;8.560;2023-03-22T04:47:01;100096.00;;;9.32;96.03
34931;BME280;21134;49.646;8.560;2023-03-22T04:49:29;100096.81;;;9.31;96.17
34931;BME280;21134;49.646;8.560;2023-03-22T04:51:56;100097.66;;;9.40;95.45
34931;BME280;21134;49.646;8.560;2023-03-22T04:54:23;100103.63;;;9.42;95.04
34931;BME280;21134;49.646;8.560;2023-03-22T04:56:50;100100.22;;;9.34;95.34
34931;BME280;21134;49.646;8.560;2023-03-22T04:59:17;100101.09;;;9.42;95.02
34931;BME280;21134;49.646;8.560;2023-03-22T05:01:44;100093.41;;;9.34;94.77
34931;BME280;21134;49.646;8.560;2023-03-22T05:04:11;100101.97;;;9.24;95.28
34931;BME280;21134;49.646;8.560;2023-03-22T05:06:39;100091.75;;;9.27;95.05
34931;BME280;21134;49.646;8.560;2023-03-22T05:09:05;100090.03;;;9.27;94.61
34931;BME280;21134;49.646;8.560;2023-03-22T05:11:32;100102.81;;;9.15;95.00
34931;BME280;21134;49.646;8.560;2023-03-22T05:13:59;100101.13;;;9.11;95.30
34931;BME280;21134;49.646;8.560;2023-03-22T05:16:25;100106.25;;;9.13;95.02
34931;BME280;21134;49.646;8.560;2023-03-22T05:18:52;100111.34;;;9.13;95.13
34931;BME280;21134;49.646;8.560;2023-03-22T05:21:20;100110.50;;;9.07;95.23
34931;BME280;21134;49.646;8.560;2023-03-22T05:23:54;100103.69;;;9.02;95.29
34931;BME280;21134;49.646;8.560;2023-03-22T05:26:21;100106.25;;;8.93;95.75
34931;BME280;21134;49.646;8.560;2023-03-22T05:28:50;100114.75;;;8.90;96.40
34931;BME280;21134;49.646;8.560;2023-03-22T05:31:17;100107.13;;;8.84;96.28
34931;BME280;21134;49.646;8.560;2023-03-22T05:33:46;100111.34;;;8.77;96.44
34931;BME280;21134;49.646;8.560;2023-03-22T05:36:12;100115.59;;;8.74;96.13
34931;BME280;21134;49.646;8.560;2023-03-22T05:38:39;100116.47;;;8.65;96.32
34931;BME280;21134;49.646;8.560;2023-03-22T05:41:07;100116.44;;;8.60;96.73
34931;BME280;21134;49.646;8.560;2023-03-22T05:43:34;100123.25;;;8.49;97.51
34931;BME280;21134;49.646;8.560;2023-03-22T05:46:04;100121.50;;;8.42;98.09
34931;BME280;21134;49.646;8.560;2023-03-22T05:48:30;100130.81;;;8.35;98.85
34931;BME280;21134;49.646;8.560;2023-03-22T05:50:57;100130.81;;;8.32;98.61
34931;BME280;21134;49.646;8.560;2023-03-22T05:53:23;100132.50;;;8.29;99.36
34931;BME280;21134;49.646;8.560;2023-03-22T05:55:49;100132.50;;;8.26;99.70
34931;BME280;21134;49.646;8.560;2023-03-22T05:58:18;100128.25;;;8.20;99.82
34931;BME280;21134;49.646;8.560;2023-03-22T06:00:45;100129.09;;;8.24;99.80
34931;BME280;21134;49.646;8.560;2023-03-22T06:03:14;100135.03;;;8.21;99.34
34931;BME280;21134;49.646;8.560;2023-03-22T06:05:40;100133.34;;;8.20;99.97
34931;BME280;21134;49.646;8.560;2023-03-22T06:08:06;100125.69;;;8.19;100.00
34931;BME280;21134;49.646;8.560;2023-03-22T06:10:33;100125.69;;;8.22;99.60
34931;BME280;21134;49.646;8.560;2023-03-22T06:13:00;100129.06;;;8.19;100.00
34931;BME280;21134;49.646;8.560;2023-03-22T06:15:27;100129.94;;;8.20;99.90
34931;BME280;21134;49.646;8.560;2023-03-22T06:17:54;100129.09;;;8.25;99.90
34931;BME280;21134;49.646;8.560;2023-03-22T06:20:20;100128.25;;;8.32;99.95
34931;BME280;21134;49.646;8.560;2023-03-22T06:22:47;100121.53;;;8.44;99.27
34931;BME280;21134;49.646;8.560;2023-03-22T06:25:13;100117.28;;;8.44;98.63
34931;BME280;21134;49.646;8.560;2023-03-22T06:27:40;100126.63;;;8.47;98.27
34931;BME280;21134;49.646;8.560;2023-03-22T06:30:07;100123.25;;;8.54;98.42
34931;BME280;21134;49.646;8.560;2023-03-22T06:32:35;100122.41;;;8.63;97.55
34931;BME280;21134;49.646;8.560;2023-03-22T06:35:01;100130.06;;;8.79;96.36
34931;BME280;21134;49.646;8.560;2023-03-22T06:37:28;100136.00;;;8.80;96.21
34931;BME280;21134;49.646;8.560;2023-03-22T06:39:54;100139.41;;;8.87;96.09
34931;BME280;21134;49.646;8.560;2023-03-22T06:42:21;100140.25;;;8.99;95.87
34931;BME280;21134;49.646;8.560;2023-03-22T06:44:47;100149.63;;;9.06;95.38
34931;BME280;21134;49.646;8.560;2023-03-22T06:47:14;100147.91;;;9.33;94.56
34931;BME280;21134;49.646;8.560;2023-03-22T06:49:42;100144.47;;;9.51;92.25
34931;BME280;21134;49.646;8.560;2023-03-22T06:52:08;100154.69;;;9.51;92.61
34931;BME280;21134;49.646;8.560;2023-03-22T06:54:35;100150.41;;;9.64;92.40
34931;BME280;21134;49.646;8.560;2023-03-22T06:57:01;100148.66;;;9.78;90.44
34931;BME280;21134;49.646;8.560;2023-03-22T06:59:28;100152.06;;;9.80;90.57
34931;BME280;21134;49.646;8.560;2023-03-22T07:01:55;100156.25;;;9.89;90.60
34931;BME280;21134;49.646;8.560;2023-03-22T07:04:21;100154.50;;;10.03;90.40
34931;BME280;21134;49.646;8.560;2023-03-22T07:06:50;100155.28;;;10.28;88.77
34931;BME280;21134;49.646;8.560;2023-03-22T07:09:17;100152.72;;;10.31;88.85
34931;BME280;21134;49.646;8.560;2023-03-22T07:11:43;100158.63;;;10.39;87.47
34931;BME280;21134;49.646;8.560;2023-03-22T07:14:10;100162.06;;;10.32;88.13
34931;BME280;21134;49.646;8.560;2023-03-22T07:16:36;100165.47;;;10.36;87.93
34931;BME280;21134;49.646;8.560;2023-03-22T07:19:03;100163.69;;;10.48;87.14
34931;BME280;21134;49.646;8.560;2023-03-22T07:21:29;100159.16;;;10.87;85.95
34931;BME280;21134;49.646;8.560;2023-03-22T07:23:57;100160.72;;;11.05;86.36
34931;BME280;21134;49.646;8.560;2023-03-22T07:26:24;100162.22;;;11.29;85.04
34931;BME280;21134;49.646;8.560;2023-03-22T07:28:51;100158.63;;;11.47;83.24
34931;BME280;21134;49.646;8.560;2023-03-22T07:31:17;100161.84;;;11.66;81.57
34931;BME280;21134;49.646;8.560;2023-03-22T07:33:44;100165.28;;;11.63;81.87
34931;BME280;21134;49.646;8.560;2023-03-22T07:36:10;100163.53;;;11.67;82.12
34931;BME280;21134;49.646;8.560;2023-03-22T07:38:37;100166.09;;;11.67;82.64
34931;BME280;21134;49.646;8.560;2023-03-22T07:41:06;100167.59;;;11.91;82.56
34931;BME280;21134;49.646;8.560;2023-03-22T07:43:32;100166.72;;;11.92;80.26
34931;BME280;21134;49.646;8.560;2023-03-22T07:45:59;100156.41;;;11.97;79.69
34931;BME280;21134;49.646;8.560;2023-03-22T07:48:25;100169.75;;;12.23;79.80
34931;BME280;21134;49.646;8.560;2023-03-22T07:50:54;100160.06;;;12.45;79.05
34931;BME280;21134;49.646;8.560;2023-03-22T07:53:21;100153.59;;;12.75;77.94
34931;BME280;21134;49.646;8.560;2023-03-22T07:55:47;100161.13;;;12.89;76.96
34931;BME280;21134;49.646;8.560;2023-03-22T07:58:15;100148.88;;;13.05;76.22
34931;BME280;21134;49.646;8.560;2023-03-22T08:00:42;100145.31;;;13.12;76.09
34931;BME280;21134;49.646;8.560;2023-03-22T08:03:09;100142.91;;;13.53;75.13
34931;BME280;21134;49.646;8.560;2023-03-22T08:05:39;100142.69;;;13.65;74.38
34931;BME280;21134;49.646;8.560;2023-03-22T08:08:05;100144.13;;;13.78;73.81
34931;BME280;21134;49.646;8.560;2023-03-22T08:10:32;100136.22;;;13.89;74.20
34931;BME280;21134;49.646;8.560;2023-03-22T08:12:58;100137.16;;;13.85;74.31
34931;BME280;21134;49.646;8.560;2023-03-22T08:15:26;100137.91;;;13.90;74.22
34931;BME280;21134;49.646;8.560;2023-03-22T08:17:53;100143.56;;;14.07;73.34
34931;BME280;21134;49.646;8.560;2023-03-22T08:20:22;100147.09;;;14.02;73.65
34931;BME280;21134;49.646;8.560;2023-03-22T08:22:51;100139.22;;;14.09;73.04
34931;BME280;21134;49.646;8.560;2023-03-22T08:25:18;100141.06;;;14.03;73.60
34931;BME280;21134;49.646;8.560;2023-03-22T08:27:45;100143.56;;;14.06;72.84
34931;BME280;21134;49.646;8.560;2023-03-22T08:30:12;100135.44;;;13.84;73.13
34931;BME280;21134;49.646;8.560;2023-03-22T08:32:40;100133.59;;;13.92;72.65
34931;BME280;21134;49.646;8.560;2023-03-22T08:35:08;100132.31;;;14.11;72.45
34931;BME280;21134;49.646;8.560;2023-03-22T08:37:35;100132.63;;;14.36;72.44
34931;BME280;21134;49.646;8.560;2023-03-22T08:40:01;100124.56;;;14.89;70.98
34931;BME280;21134;49.646;8.560;2023-03-22T08:42:30;100128.13;;;15.18;70.14
34931;BME280;21134;49.646;8.560;2023-03-22T08:44:57;100125.47;;;15.21;68.98
34931;BME280;21134;49.646;8.560;2023-03-22T08:47:23;100125.44;;;15.55;67.48
34931;BME280;21134;49.646;8.560;2023-03-22T08:49:51;100126.13;;;15.60;68.66
34931;BME280;21134;49.646;8.560;2023-03-22T08:52:18;100124.72;;;15.81;67.06
34931;BME280;21134;49.646;8.560;2023-03-22T08:54:44;100125.53;;;15.83;65.61
34931;BME280;21134;49.646;8.560;2023-03-22T08:57:11;100116.06;;;15.84;64.61
34931;BME280;21134;49.646;8.560;2023-03-22T08:59:38;100113.81;;;15.71;64.18
34931;BME280;21134;49.646;8.560;2023-03-22T09:02:05;100122.00;;;15.54;65.36
34931;BME280;21134;49.646;8.560;2023-03-22T09:04:31;100112.03;;;15.41;66.54
34931;BME280;21134;49.646;8.560;2023-03-22T09:06:59;100106.44;;;15.26;65.39
34931;BME280;21134;49.646;8.560;2023-03-22T09:09:25;100111.09;;;15.45;65.05
34931;BME280;21134;49.646;8.560;2023-03-22T09:11:52;100096.31;;;15.51;63.57
34931;BME280;21134;49.646;8.560;2023-03-22T09:14:18;100100.63;;;15.51;64.01
34931;BME280;21134;49.646;8.560;2023-03-22T09:16:45;100098.28;;;15.73;63.89
34931;BME280;21134;49.646;8.560;2023-03-22T09:19:11;100091.59;;;15.97;63.64
34931;BME280;21134;49.646;8.560;2023-03-22T09:21:38;100093.44;;;16.21;62.91
34931;BME280;21134;49.646;8.560;2023-03-22T09:24:06;100090.13;;;16.44;61.12
34931;BME280;21134;49.646;8.560;2023-03-22T09:26:33;100085.81;;;16.71;60.27
34931;BME280;21134;49.646;8.560;2023-03-22T09:29:01;100091.66;;;16.78;60.61
34931;BME280;21134;49.646;8.560;2023-03-22T09:31:27;100086.47;;;16.51;58.80
34931;BME280;21134;49.646;8.560;2023-03-22T09:33:54;100092.00;;;16.39;58.79
34931;BME280;21134;49.646;8.560;2023-03-22T09:36:20;100090.88;;;16.20;59.78
34931;BME280;21134;49.646;8.560;2023-03-22T09:38:47;100083.41;;;16.11;58.97
34931;BME280;21134;49.646;8.560;2023-03-22T09:41:18;100077.28;;;16.15;58.88
34931;BME280;21134;49.646;8.560;2023-03-22T09:43:49;100080.47;;;16.23;59.12
34931;BME280;21134;49.646;8.560;2023-03-22T09:46:21;100076.78;;;16.30;59.31
34931;BME280;21134;49.646;8.560;2023-03-22T09:48:50;100075.22;;;16.52;59.21
34931;BME280;21134;49.646;8.560;2023-03-22T09:51:27;100072.53;;;16.56;58.54
34931;BME280;21134;49.646;8.560;2023-03-22T09:53:54;100070.31;;;16.71;59.54
34931;BME280;21134;49.646;8.560;2023-03-22T09:56:24;100069.47;;;16.71;58.08
34931;BME280;21134;49.646;8.560;2023-03-22T09:58:54;100047.84;;;16.73;58.93
34931;BME280;21134;49.646;8.560;2023-03-22T10:01:28;100052.88;;;16.78;59.17
34931;BME280;21134;49.646;8.560;2023-03-22T10:04:13;100048.69;;;16.74;58.24
34931;BME280;21134;49.646;8.560;2023-03-22T10:06:47;100055.59;;;16.73;57.39
34931;BME280;21134;49.646;8.560;2023-03-22T10:09:19;100045.97;;;16.52;58.22
34931;BME280;21134;49.646;8.560;2023-03-22T10:11:54;100044.66;;;16.40;58.18
34931;BME280;21134;49.646;8.560;2023-03-22T10:14:31;100036.84;;;16.15;58.29
34931;BME280;21134;49.646;8.560;2023-03-22T10:17:02;100041.75;;;16.23;59.59
34931;BME280;21134;49.646;8.560;2023-03-22T10:19:33;100036.78;;;16.17;59.65
34931;BME280;21134;49.646;8.560;2023-03-22T10:22:03;100039.31;;;16.18;59.15
34931;BME280;21134;49.646;8.560;2023-03-22T10:24:33;100030.69;;;16.19;59.25
34931;BME280;21134;49.646;8.560;2023-03-22T10:27:02;100038.38;;;16.21;59.44
34931;BME280;21134;49.646;8.560;2023-03-22T10:29:31;100046.44;;;16.10;60.00
34931;BME280;21134;49.646;8.560;2023-03-22T10:32:11;100048.75;;;16.19;59.63
34931;BME280;21134;49.646;8.560;2023-03-22T10:34:39;100043.59;;;16.19;59.19
34931;BME280;21134;49.646;8.560;2023-03-22T10:37:06;100049.28;;;16.56;59.02
34931;BME280;21134;49.646;8.560;2023-03-22T10:39:38;100043.84;;;16.65;57.36
34931;BME280;21134;49.646;8.560;2023-03-22T10:42:11;100043.34;;;16.80;58.61
34931;BME280;21134;49.646;8.560;2023-03-22T10:44:44;100034.50;;;16.87;57.59
34931;BME280;21134;49.646;8.560;2023-03-22T10:47:14;100043.56;;;16.99;57.12
34931;BME280;21134;49.646;8.560;2023-03-22T10:49:45;100034.16;;;16.98;56.10
34931;BME280;21134;49.646;8.560;2023-03-22T10:52:33;100026.50;;;17.18;56.80
34931;BME280;21134;49.646;8.560;2023-03-22T10:55:02;100037.63;;;17.46;56.26
34931;BME280;21134;49.646;8.560;2023-03-22T10:57:30;100039.19;;;17.97;55.72
34931;BME280;21134;49.646;8.560;2023-03-22T10:59:56;100038.97;;;18.01;53.99
34931;BME280;21134;49.646;8.560;2023-03-22T11:02:26;100037.94;;;18.05;54.42
34931;BME280;21134;49.646;8.560;2023-03-22T11:04:54;100022.84;;;17.95;53.96
34931;BME280;21134;49.646;8.560;2023-03-22T11:07:29;100031.81;;;17.86;55.06
34931;BME280;21134;49.646;8.560;2023-03-22T11:10:19;100029.59;;;17.75;55.80
34931;BME280;21134;49.646;8.560;2023-03-22T11:12:50;100008.84;;;17.77;56.23
34931;BME280;21134;49.646;8.560;2023-03-22T11:15:22;100014.75;;;17.80;55.80
34931;BME280;21134;49.646;8.560;2023-03-22T11:17:49;100014.44;;;17.66;55.76
34931;BME280;21134;49.646;8.560;2023-03-22T11:20:16;100012.69;;;17.66;55.56
34931;BME280;21134;49.646;8.560;2023-03-22T11:22:45;100007.38;;;17.70;55.65
34931;BME280;21134;49.646;8.560;2023-03-22T11:25:14;100007.19;;;17.52;57.01
34931;BME280;21134;49.646;8.560;2023-03-22T11:27:50;100025.81;;;17.62;56.25
34931;BME280;21134;49.646;8.560;2023-03-22T11:30:20;100008.94;;;17.74;54.82
34931;BME280;21134;49.646;8.560;2023-03-22T11:32:47;99996.78;;;17.77;53.65
34931;BME280;21134;49.646;8.560;2023-03-22T11:35:15;100000.50;;;18.14;54.77
34931;BME280;21134;49.646;8.560;2023-03-22T11:37:44;99990.38;;;18.30;54.49
34931;BME280;21134;49.646;8.560;2023-03-22T11:40:14;99986.16;;;18.27;53.92
34931;BME280;21134;49.646;8.560;2023-03-22T11:42:41;99991.50;;;18.45;53.54
34931;BME280;21134;49.646;8.560;2023-03-22T11:45:14;99990.16;;;18.34;52.24
34931;BME280;21134;49.646;8.560;2023-03-22T11:47:41;99985.97;;;18.52;53.76
34931;BME280;21134;49.646;8.560;2023-03-22T11:50:24;99990.44;;;18.49;52.97
34931;BME280;21134;49.646;8.560;2023-03-22T11:52:51;99978.22;;;18.52;52.20
34931;BME280;21134;49.646;8.560;2023-03-22T11:55:18;99982.03;;;18.64;53.64
34931;BME280;21134;49.646;8.560;2023-03-22T11:57:46;99979.00;;;18.54;52.63
34931;BME280;21134;49.646;8.560;2023-03-22T12:00:20;99973.03;;;18.73;52.49
34931;BME280;21134;49.646;8.560;2023-03-22T12:02:52;99960.38;;;18.86;52.47
34931;BME280;21134;49.646;8.560;2023-03-22T12:05:22;99964.59;;;19.09;51.88
34931;BME280;21134;49.646;8.560;2023-03-22T12:07:55;99957.97;;;19.01;51.67
34931;BME280;21134;49.646;8.560;2023-03-22T12:10:27;99954.53;;;19.01;51.82
34931;BME280;21134;49.646;8.560;2023-03-22T12:12:57;99947.44;;;18.86;49.84
34931;BME280;21134;49.646;8.560;2023-03-22T12:15:28;99963.66;;;19.10;49.54
34931;BME280;21134;49.646;8.560;2023-03-22T12:17:59;99953.22;;;19.11;49.10
34931;BME280;21134;49.646;8.560;2023-03-22T12:20:35;99948.88;;;18.93;47.04
34931;BME280;21134;49.646;8.560;2023-03-22T12:23:11;99944.94;;;18.64;48.14
34931;BME280;21134;49.646;8.560;2023-03-22T12:25:42;99941.56;;;18.41;49.71
34931;BME280;21134;49.646;8.560;2023-03-22T12:28:14;99948.75;;;18.55;50.78
34931;BME280;21134;49.646;8.560;2023-03-22T12:30:46;99931.22;;;18.60;50.70
34931;BME280;21134;49.646;8.560;2023-03-22T12:33:17;99934.47;;;18.24;50.54
34931;BME280;21134;49.646;8.560;2023-03-22T12:35:47;99933.50;;;18.27;51.66
34931;BME280;21134;49.646;8.560;2023-03-22T12:38:22;99919.91;;;18.22;51.25
34931;BME280;21134;49.646;8.560;2023-03-22T12:40:53;99920.03;;;18.59;52.46
34931;BME280;21134;49.646;8.560;2023-03-22T12:43:37;99912.84;;;18.87;50.79
34931;BME280;21134;49.646;8.560;2023-03-22T12:46:09;99915.72;;;18.99;49.53
34931;BME280;21134;49.646;8.560;2023-03-22T12:48:42;99900.31;;;19.34;49.07
34931;BME280;21134;49.646;8.560;2023-03-22T12:51:12;99898.88;;;19.65;49.68
34931;BME280;21134;49.646;8.560;2023-03-22T12:53:42;99896.75;;;19.90;47.90
34931;BME280;21134;49.646;8.560;2023-03-22T12:56:12;99891.91;;;20.02;47.57
34931;BME280;21134;49.646;8.560;2023-03-22T12:58:40;99899.06;;;20.31;48.28
34931;BME280;21134;49.646;8.560;2023-03-22T13:01:19;99891.88;;;20.19;47.42
34931;BME280;21134;49.646;8.560;2023-03-22T13:03:48;99891.03;;;19.84;48.49
34931;BME280;21134;49.646;8.560;2023-03-22T13:06:32;99882.09;;;19.72;48.67
34931;BME280;21134;49.646;8.560;2023-03-22T13:09:13;99881.38;;;19.68;47.23